createdAt,value
2018-08-17T14:12:52.877Z,38
2018-08-17T14:13:50.312Z,38.09
2018-08-17T14:14:48.202Z,38.2
2018-08-17T14:15:28.019Z,35.3
2018-08-17T14:16:30.401Z,35.3
2018-08-17T14:17:33.248Z,35.3
2018-08-17T14:33:10.979Z,38
2018-08-17T14:48:37.811Z,35.5
2018-08-17T15:04:05.185Z,35.09
2018-08-17T15:19:32.402Z,34.5
2018-08-17T15:34:43.669Z,34.5
2018-08-17T15:50:22.149Z,34.5
2018-08-17T16:05:53.132Z,34.4
2018-08-17T16:21:20.460Z,34.2
2018-08-17T16:36:47.553Z,33.7
2018-08-17T16:51:51.884Z,33.2
2018-08-17T17:07:28.784Z,32.7
2018-08-17T17:23:06.648Z,32.2
2018-08-17T17:38:32.554Z,31.7
2018-08-17T17:53:57.605Z,31
2018-08-17T18:09:22.046Z,30.5
2018-08-17T18:24:29.133Z,29.9
2018-08-17T18:40:04.939Z,29.5
2018-08-17T18:55:36.984Z,29.1
2018-08-17T19:10:53.871Z,28.7
2018-08-17T19:26:16.177Z,28.3
2018-08-17T19:41:24.457Z,27.9
2018-08-17T19:56:58.128Z,27.6
2018-08-17T20:12:22.910Z,27.4
2018-08-17T20:27:44.651Z,27.1
2018-08-17T20:43:06.775Z,26.8
2018-08-17T20:58:14.481Z,26.6
2018-08-17T21:13:48.313Z,26.4
2018-08-17T21:29:10.939Z,26.2
2018-08-17T21:44:32.560Z,25.9
2018-08-17T21:59:53.565Z,25.4
2018-08-17T22:15:02.196Z,23.8
2018-08-17T22:30:33.678Z,22.3
2018-08-17T22:45:52.096Z,21.4
2018-08-17T23:01:10.944Z,19.9
2018-08-17T23:16:29.095Z,18.5
2018-08-17T23:31:41.022Z,18.5
2018-08-17T23:47:04.600Z,18.7
